createdAt,value
2018-07-04T00:00:53.918Z,19.10
2018-07-04T00:03:40.334Z,19.40
2018-07-04T00:06:25.578Z,19.10
2018-07-04T00:09:10.853Z,19.40
2018-07-04T00:11:56.333Z,19.50
2018-07-04T00:14:41.678Z,19.60
2018-07-04T00:17:26.967Z,19.40
2018-07-04T00:20:12.292Z,19.40
2018-07-04T00:25:37.505Z,19.20
2018-07-04T00:28:22.858Z,19.10
2018-07-04T00:31:08.212Z,19.20
2018-07-04T00:33:54.090Z,19.40
2018-07-04T00:36:39.696Z,19.40
2018-07-04T00:39:25.153Z,19.50
2018-07-04T00:42:10.452Z,19.30
2018-07-04T00:44:55.839Z,19.20
2018-07-04T00:47:41.285Z,19.00
2018-07-04T00:50:26.802Z,19.70
2018-07-04T00:53:12.347Z,19.40
2018-07-04T00:55:57.531Z,19.40
2018-07-04T00:58:42.795Z,19.10
2018-07-04T01:01:28.292Z,19.00
2018-07-04T01:04:13.790Z,19.30
2018-07-04T01:06:59.040Z,19.60
2018-07-04T01:09:44.648Z,19.10
2018-07-04T01:12:30.397Z,19.30
2018-07-04T01:15:15.776Z,19.10
2018-07-04T01:18:01.051Z,19.50
2018-07-04T01:21:21.011Z,19.70
2018-07-04T01:24:06.557Z,19.60
2018-07-04T01:26:51.988Z,19.30
2018-07-04T01:29:37.290Z,19.10
2018-07-04T01:32:22.918Z,19.10
2018-07-04T01:35:08.223Z,19.20
2018-07-04T01:37:53.734Z,19.30
2018-07-04T01:40:39.332Z,19.30
2018-07-04T01:43:25.235Z,19.10
2018-07-04T01:46:13.123Z,18.80
2018-07-04T01:48:58.883Z,18.50
2018-07-04T01:54:24.210Z,19.20
2018-07-04T01:57:10.164Z,19.10
2018-07-04T01:59:55.720Z,19.00
2018-07-04T02:02:48.090Z,19.50
2018-07-04T02:05:34.974Z,18.90
2018-07-04T02:08:20.484Z,19.00
2018-07-04T02:11:08.765Z,19.50
2018-07-04T02:16:34.566Z,18.60
2018-07-04T02:19:20.848Z,18.70
2018-07-04T02:22:06.620Z,19.00
2018-07-04T02:24:52.237Z,19.20
2018-07-04T02:27:38.130Z,19.30
2018-07-04T02:30:24.003Z,18.80
2018-07-04T02:33:09.805Z,18.50
2018-07-04T02:35:55.498Z,18.60
2018-07-04T02:38:41.157Z,18.60
2018-07-04T02:41:26.651Z,18.90
2018-07-04T02:44:12.837Z,18.80
2018-07-04T02:46:58.534Z,18.50
2018-07-04T02:49:45.043Z,18.30
2018-07-04T02:52:32.054Z,18.30
2018-07-04T02:55:54.091Z,18.50
2018-07-04T02:58:39.751Z,18.50
2018-07-04T03:01:27.201Z,18.80
2018-07-04T03:04:13.021Z,18.40
2018-07-04T03:06:58.570Z,18.30
2018-07-04T03:09:44.100Z,18.70
2018-07-04T03:12:29.809Z,18.80
2018-07-04T03:15:15.933Z,18.70
2018-07-04T03:18:01.310Z,18.40
2018-07-04T03:20:46.628Z,18.50
2018-07-04T03:23:32.123Z,18.90
2018-07-04T03:26:17.649Z,19.60
2018-07-04T03:29:03.454Z,18.70
2018-07-04T03:31:48.969Z,18.70
2018-07-04T03:34:38.695Z,18.30
2018-07-04T03:37:24.540Z,18.30
2018-07-04T03:40:10.545Z,17.20
2018-07-04T03:45:35.915Z,18.40
2018-07-04T03:48:21.387Z,18.70
2018-07-04T03:51:07.172Z,19.00
2018-07-04T03:53:53.007Z,18.40
2018-07-04T03:56:43.560Z,18.30
2018-07-04T03:59:29.207Z,18.50
2018-07-04T04:02:15.136Z,18.20
2018-07-04T04:05:00.990Z,18.50
2018-07-04T04:07:46.776Z,19.10
2018-07-04T04:10:32.757Z,18.70
2018-07-04T04:13:18.181Z,19.10
2018-07-04T04:16:03.555Z,18.70
2018-07-04T04:18:48.768Z,19.10
2018-07-04T04:21:34.180Z,19.10
2018-07-04T04:24:19.395Z,19.20
2018-07-04T04:27:04.693Z,18.80
2018-07-04T04:29:49.991Z,18.60
2018-07-04T04:32:35.140Z,18.80
2018-07-04T04:35:20.191Z,18.90
2018-07-04T04:38:05.286Z,18.80
2018-07-04T04:40:50.491Z,19.20
2018-07-04T04:43:35.675Z,19.50
2018-07-04T04:46:20.869Z,19.10
2018-07-04T04:49:05.954Z,18.70
2018-07-04T04:51:51.181Z,18.60
2018-07-04T04:54:36.208Z,18.70
2018-07-04T04:57:21.250Z,19.00
2018-07-04T05:00:06.515Z,19.00
2018-07-04T05:02:51.634Z,19.30
2018-07-04T05:08:16.174Z,19.90
2018-07-04T05:11:01.279Z,19.60
2018-07-04T05:13:46.521Z,19.90
2018-07-04T05:16:31.746Z,20.00
2018-07-04T05:21:56.287Z,20.50
2018-07-04T05:24:41.528Z,20.30
2018-07-04T05:27:26.590Z,20.30
2018-07-04T05:30:11.700Z,20.10
2018-07-04T05:32:56.943Z,20.90
2018-07-04T05:35:42.080Z,20.30
2018-07-04T05:38:27.141Z,20.10
2018-07-04T05:41:12.330Z,20.20
2018-07-04T05:43:57.607Z,21.00
2018-07-04T05:46:42.731Z,21.50
2018-07-04T05:49:27.931Z,20.70
2018-07-04T05:52:13.146Z,19.80
2018-07-04T05:54:58.291Z,19.50
2018-07-04T05:57:43.552Z,20.40
2018-07-04T06:00:29.481Z,20.90
2018-07-04T06:03:14.836Z,21.50
2018-07-04T06:06:00.203Z,21.90
2018-07-04T06:08:45.235Z,22.40
2018-07-04T06:14:09.813Z,22.70
2018-07-04T06:16:54.889Z,22.70
2018-07-04T06:19:40.034Z,23.00
2018-07-04T06:25:04.826Z,22.10
2018-07-04T06:27:50.038Z,23.00
2018-07-04T06:30:35.100Z,23.00
2018-07-04T06:33:20.360Z,22.40
2018-07-04T06:36:06.549Z,23.30
2018-07-04T06:38:39.216Z,24.10
2018-07-04T06:41:05.643Z,24.60
2018-07-04T06:43:32.074Z,24.20
2018-07-04T06:45:58.527Z,23.90
2018-07-04T06:48:25.194Z,23.40
2018-07-04T06:50:51.640Z,23.90
2018-07-04T06:53:18.148Z,24.20
2018-07-04T06:55:44.677Z,24.40
2018-07-04T06:58:11.097Z,24.40
2018-07-04T07:00:37.528Z,24.30
2018-07-04T07:03:16.580Z,24.00
2018-07-04T07:06:01.767Z,24.30
2018-07-04T07:08:47.204Z,24.40
2018-07-04T07:11:32.397Z,24.40
2018-07-04T07:14:17.448Z,24.50
2018-07-04T07:17:02.729Z,24.80
2018-07-04T07:19:47.772Z,24.80
2018-07-04T07:22:33.020Z,25.00
2018-07-04T07:25:18.223Z,25.10
2018-07-04T07:28:03.373Z,24.60
2018-07-04T07:30:48.588Z,25.10
2018-07-04T07:33:33.790Z,25.00
2018-07-04T07:36:19.000Z,25.10
2018-07-04T07:39:04.307Z,25.00
2018-07-04T07:41:49.423Z,25.00
2018-07-04T07:44:34.680Z,25.00
2018-07-04T07:47:19.823Z,24.40
2018-07-04T07:50:04.921Z,24.50
2018-07-04T07:52:50.031Z,24.70
2018-07-04T07:55:35.251Z,25.00
2018-07-04T07:58:20.462Z,25.30
2018-07-04T08:01:05.727Z,25.30
2018-07-04T08:03:50.880Z,25.60
2018-07-04T08:06:36.075Z,25.80
2018-07-04T08:09:21.439Z,25.50
2018-07-04T08:14:45.821Z,25.10
2018-07-04T08:17:30.930Z,25.10
2018-07-04T08:20:15.963Z,25.20
2018-07-04T08:23:01.079Z,25.40
2018-07-04T08:25:46.168Z,25.70
2018-07-04T08:28:31.304Z,25.70
2018-07-04T08:31:16.561Z,25.60
2018-07-04T08:36:41.062Z,25.40
2018-07-04T08:39:26.167Z,25.60
2018-07-04T08:42:11.411Z,25.70
2018-07-04T08:44:56.543Z,25.40
2018-07-04T08:47:41.827Z,25.60
2018-07-04T08:50:27.029Z,25.40
2018-07-04T08:53:13.306Z,25.60
2018-07-04T08:55:58.641Z,25.80
2018-07-04T08:58:43.872Z,25.40
2018-07-04T09:01:28.836Z,25.40
2018-07-04T09:04:13.939Z,25.50
2018-07-04T09:06:59.422Z,25.40
2018-07-04T09:09:44.479Z,25.50
2018-07-04T09:12:29.672Z,25.10
2018-07-04T09:15:14.844Z,25.40
2018-07-04T09:17:59.981Z,25.40
2018-07-04T09:20:45.289Z,25.50
2018-07-04T09:23:30.527Z,25.40
2018-07-04T09:26:15.803Z,25.40
2018-07-04T09:29:00.898Z,25.50
2018-07-04T09:31:46.034Z,25.30
2018-07-04T09:34:31.219Z,25.20
2018-07-04T09:37:16.527Z,25.10
2018-07-04T09:40:01.834Z,25.10
2018-07-04T09:42:46.972Z,25.00
2018-07-04T09:45:32.139Z,25.00
2018-07-04T09:48:17.338Z,25.00
2018-07-04T09:51:02.696Z,24.80
2018-07-04T09:53:47.928Z,24.00
2018-07-04T09:56:32.793Z,24.30
2018-07-04T09:59:19.746Z,24.00
2018-07-04T10:02:05.064Z,22.90
2018-07-04T10:04:50.572Z,23.10
2018-07-04T10:07:35.962Z,24.00
2018-07-04T10:10:21.197Z,23.60
2018-07-04T10:13:06.703Z,23.50
2018-07-04T10:15:52.057Z,23.90
2018-07-04T10:18:37.390Z,23.90
2018-07-04T10:21:22.719Z,23.70
2018-07-04T10:26:48.023Z,23.00
2018-07-04T10:29:33.303Z,22.70
2018-07-04T10:32:18.857Z,23.00
2018-07-04T10:35:04.112Z,23.00
2018-07-04T10:37:49.186Z,23.20
2018-07-04T10:40:34.335Z,23.40
2018-07-04T10:43:19.536Z,23.30
2018-07-04T10:46:04.644Z,23.50
2018-07-04T10:48:49.794Z,23.50
2018-07-04T10:51:36.550Z,23.70
2018-07-04T10:54:21.749Z,24.20
2018-07-04T10:57:06.915Z,23.90
2018-07-04T10:59:52.046Z,24.10
2018-07-04T11:02:37.189Z,24.60
2018-07-04T11:05:22.543Z,24.80
2018-07-04T11:08:07.721Z,24.90
2018-07-04T11:10:52.847Z,24.50
2018-07-04T11:13:37.972Z,24.20
2018-07-04T11:19:02.403Z,24.20
2018-07-04T11:21:47.643Z,24.30
2018-07-04T11:24:32.761Z,24.40
2018-07-04T11:27:18.032Z,24.70
2018-07-04T11:30:03.254Z,24.70
2018-07-04T11:32:48.227Z,24.90
2018-07-04T11:35:33.274Z,25.00
2018-07-04T11:38:18.529Z,24.10
2018-07-04T11:41:03.573Z,24.50
2018-07-04T11:43:48.708Z,24.60
2018-07-04T11:46:21.349Z,25.00
2018-07-04T11:48:47.835Z,25.20
2018-07-04T11:51:14.278Z,25.20
2018-07-04T11:53:40.715Z,25.00
2018-07-04T11:56:07.193Z,25.00
2018-07-04T11:58:33.654Z,24.50
2018-07-04T12:01:00.123Z,24.40
2018-07-04T12:03:26.562Z,24.50
2018-07-04T12:06:05.563Z,24.40
2018-07-04T12:08:38.218Z,24.20
2018-07-04T12:11:04.811Z,24.30
2018-07-04T12:13:31.280Z,24.20
2018-07-04T12:15:57.907Z,24.20
2018-07-04T12:18:24.382Z,23.90
2018-07-04T12:20:50.910Z,23.90
2018-07-04T12:23:17.306Z,24.00
2018-07-04T12:25:44.490Z,24.20
2018-07-04T12:28:10.979Z,24.60
2018-07-04T12:30:37.498Z,24.70
2018-07-04T12:33:03.982Z,24.70
2018-07-04T12:35:30.429Z,24.70
2018-07-04T12:40:23.819Z,24.60
2018-07-04T12:42:50.251Z,23.90
2018-07-04T12:45:16.724Z,23.90
2018-07-04T12:47:43.250Z,24.10
2018-07-04T12:50:22.223Z,24.60
2018-07-04T12:52:50.518Z,24.90
2018-07-04T12:58:10.344Z,24.80
2018-07-04T13:00:55.391Z,25.10
2018-07-04T13:03:40.610Z,25.20
2018-07-04T13:06:25.726Z,24.70
2018-07-04T13:11:50.292Z,24.00
2018-07-04T13:14:35.559Z,24.20
2018-07-04T13:17:20.735Z,24.10
2018-07-04T13:20:05.899Z,24.40
2018-07-04T13:22:51.247Z,24.40
2018-07-04T13:25:36.429Z,24.10
2018-07-04T13:28:21.523Z,23.50
2018-07-04T13:31:06.783Z,23.50
2018-07-04T13:33:52.023Z,23.50
2018-07-04T13:36:37.304Z,23.80
2018-07-04T13:39:22.515Z,24.20
2018-07-04T13:42:07.687Z,24.60
2018-07-04T13:44:52.778Z,24.50
2018-07-04T13:50:17.411Z,23.90
2018-07-04T13:53:03.622Z,24.00
2018-07-04T13:55:48.873Z,24.60
2018-07-04T13:58:33.905Z,24.40
2018-07-04T14:11:09.110Z,24.40
2018-07-04T14:13:54.281Z,24.10
2018-07-04T14:16:39.460Z,24.10
2018-07-04T14:19:24.630Z,23.90
2018-07-04T14:22:09.825Z,24.50
2018-07-04T14:24:55.161Z,24.80
2018-07-04T14:27:40.319Z,24.40
2018-07-04T14:33:04.966Z,24.60
2018-07-04T14:35:49.875Z,24.90
2018-07-04T14:38:35.044Z,24.70
2018-07-04T14:41:20.183Z,24.80
2018-07-04T14:44:05.148Z,25.10
2018-07-04T14:46:50.404Z,24.70
2018-07-04T14:49:35.528Z,24.70
2018-07-04T14:52:20.843Z,24.70
2018-07-04T14:55:05.931Z,24.40
2018-07-04T14:57:51.117Z,24.70
2018-07-04T15:00:36.243Z,24.50
2018-07-04T15:06:00.711Z,24.00
2018-07-04T15:08:45.879Z,24.30
2018-07-04T15:11:30.975Z,24.00
2018-07-04T15:14:16.051Z,24.60
2018-07-04T15:26:39.758Z,24.70
2018-07-04T15:29:24.939Z,24.90
2018-07-04T15:32:10.146Z,23.90
2018-07-04T15:34:55.405Z,23.80
2018-07-04T15:37:40.577Z,23.60
2018-07-04T15:40:25.689Z,24.10
2018-07-04T15:43:10.873Z,24.10
2018-07-04T15:45:56.415Z,24.00
2018-07-04T15:48:42.087Z,24.00
2018-07-04T15:51:27.352Z,24.70
2018-07-04T15:54:12.517Z,25.10
2018-07-04T15:59:36.944Z,23.50
2018-07-04T16:02:22.028Z,22.70
2018-07-04T16:05:07.247Z,22.60
2018-07-04T16:07:52.890Z,22.90
2018-07-04T16:10:37.980Z,22.50
2018-07-04T16:13:23.082Z,23.00
2018-07-04T16:16:08.249Z,23.70
2018-07-04T16:18:53.539Z,24.50
2018-07-04T16:21:38.739Z,24.10
2018-07-04T16:24:23.892Z,24.50
2018-07-04T16:27:09.223Z,23.90
2018-07-04T16:29:54.503Z,23.70
2018-07-04T16:32:39.638Z,24.50
2018-07-04T16:35:24.631Z,24.40
2018-07-04T16:38:09.767Z,24.00
2018-07-04T16:40:55.099Z,24.50
2018-07-04T16:43:40.159Z,24.50
2018-07-04T16:46:25.283Z,24.30
2018-07-04T16:49:10.480Z,24.50
2018-07-04T16:51:55.528Z,24.30
2018-07-04T16:54:40.701Z,24.50
2018-07-04T16:57:25.875Z,24.00
2018-07-04T17:00:11.010Z,23.20
2018-07-04T17:02:56.091Z,22.90
2018-07-04T17:05:41.171Z,23.70
2018-07-04T17:08:26.429Z,23.80
2018-07-04T17:11:11.526Z,23.80
2018-07-04T17:13:56.487Z,23.10
2018-07-04T17:16:41.523Z,23.30
2018-07-04T17:19:26.604Z,24.10
2018-07-04T17:22:11.793Z,24.00
2018-07-04T17:24:57.158Z,23.60
2018-07-04T17:30:21.634Z,22.50
2018-07-04T17:33:06.925Z,22.30
2018-07-04T17:35:51.959Z,22.40
2018-07-04T17:38:37.118Z,22.50
2018-07-04T17:41:22.238Z,23.10
2018-07-04T17:44:07.493Z,22.90
2018-07-04T17:46:52.735Z,22.60
2018-07-04T17:49:37.783Z,23.00
2018-07-04T17:52:22.946Z,23.80
2018-07-04T17:55:08.502Z,24.40
2018-07-04T17:57:54.096Z,23.50
2018-07-04T18:00:39.461Z,23.90
2018-07-04T18:03:25.619Z,23.80
2018-07-04T18:06:10.679Z,23.50
2018-07-04T18:08:55.904Z,23.50
2018-07-04T18:11:41.080Z,23.40
2018-07-04T18:14:26.272Z,23.40
2018-07-04T18:17:11.323Z,23.30
2018-07-04T18:19:56.494Z,23.30
2018-07-04T18:22:41.758Z,23.30
2018-07-04T18:25:27.163Z,23.30
2018-07-04T18:28:12.489Z,23.20
2018-07-04T18:30:57.729Z,23.50
2018-07-04T18:33:42.837Z,23.30
2018-07-04T18:36:27.969Z,23.20
2018-07-04T18:39:13.099Z,23.50
2018-07-04T18:41:58.065Z,23.10
2018-07-04T18:44:43.259Z,23.30
2018-07-04T18:47:28.340Z,23.20
2018-07-04T18:50:13.511Z,23.30
2018-07-04T18:52:58.550Z,23.60
2018-07-04T18:55:43.990Z,23.40
2018-07-04T18:58:29.259Z,23.40
2018-07-04T19:01:15.120Z,23.50
2018-07-04T19:04:00.324Z,23.30
2018-07-04T19:06:45.488Z,23.40
2018-07-04T19:09:30.807Z,23.40
2018-07-04T19:12:15.841Z,23.30
2018-07-04T19:15:01.094Z,23.30
2018-07-04T19:17:46.602Z,23.60
2018-07-04T19:20:31.702Z,23.60
2018-07-04T19:23:17.177Z,23.60
2018-07-04T19:26:02.251Z,23.10
2018-07-04T19:28:47.495Z,23.10
2018-07-04T19:31:32.893Z,23.00
2018-07-04T19:34:18.030Z,23.00
2018-07-04T19:37:03.541Z,22.80
2018-07-04T19:39:48.860Z,22.80
2018-07-04T19:42:34.147Z,22.60
2018-07-04T19:45:19.616Z,22.60
2018-07-04T19:48:04.927Z,22.40
2018-07-04T19:50:50.214Z,22.10
2018-07-04T19:53:35.272Z,22.30
2018-07-04T19:56:20.579Z,22.40
2018-07-04T19:59:05.700Z,22.40
2018-07-04T20:01:50.999Z,22.20
2018-07-04T20:04:36.118Z,22.40
2018-07-04T20:07:21.580Z,22.40
2018-07-04T20:10:06.844Z,22.30
2018-07-04T20:12:52.008Z,22.20
2018-07-04T20:15:37.438Z,22.10
2018-07-04T20:18:22.949Z,22.30
2018-07-04T20:21:08.214Z,22.20
2018-07-04T20:23:53.367Z,22.30
2018-07-04T20:26:38.620Z,22.40
2018-07-04T20:29:23.906Z,22.20
2018-07-04T20:32:09.033Z,22.10
2018-07-04T20:34:54.468Z,21.90
2018-07-04T20:37:39.780Z,21.70
2018-07-04T20:40:24.898Z,22.00
2018-07-04T20:43:10.152Z,22.30
2018-07-04T20:45:55.220Z,22.40
2018-07-04T20:48:40.213Z,21.90
2018-07-04T20:51:25.374Z,21.90
2018-07-04T20:54:10.635Z,21.90
2018-07-04T20:56:55.960Z,21.80
2018-07-04T20:59:41.093Z,21.80
2018-07-04T21:02:26.239Z,22.00
2018-07-04T21:05:11.447Z,21.60
2018-07-04T21:07:56.582Z,22.00
2018-07-04T21:10:41.799Z,22.10
2018-07-04T21:13:26.995Z,21.70
2018-07-04T21:16:12.172Z,21.70
2018-07-04T21:18:57.342Z,21.70
2018-07-04T21:21:42.451Z,21.80
2018-07-04T21:27:07.041Z,21.80
2018-07-04T21:29:52.603Z,21.90
2018-07-04T21:32:37.913Z,21.90
2018-07-04T21:35:22.943Z,21.90
2018-07-04T21:38:08.261Z,21.70
2018-07-04T21:40:53.511Z,21.50
2018-07-04T21:43:38.682Z,21.40
2018-07-04T21:46:23.865Z,21.40
2018-07-04T21:49:09.138Z,21.30
2018-07-04T21:51:54.463Z,21.40
2018-07-04T21:54:39.616Z,21.40
2018-07-04T21:57:24.739Z,21.40
2018-07-04T22:00:09.915Z,21.50
2018-07-04T22:02:55.195Z,21.50
2018-07-04T22:05:40.760Z,21.30
2018-07-04T22:11:06.121Z,21.30
2018-07-04T22:13:51.239Z,21.20
2018-07-04T22:16:36.343Z,21.40
2018-07-04T22:22:00.856Z,21.30
2018-07-04T22:24:46.034Z,21.30
2018-07-04T22:27:31.219Z,21.50
2018-07-04T22:30:16.330Z,21.20
2018-07-04T22:33:01.641Z,21.40
2018-07-04T22:35:46.711Z,21.30
2018-07-04T22:38:31.943Z,21.20
2018-07-04T22:41:17.012Z,21.20
2018-07-04T22:44:02.110Z,21.40
2018-07-04T22:46:47.393Z,21.40
2018-07-04T22:49:32.444Z,21.20
2018-07-04T22:52:17.534Z,21.00
2018-07-04T22:57:42.047Z,21.00
2018-07-04T23:00:27.170Z,21.10
2018-07-04T23:03:12.411Z,21.10
2018-07-04T23:05:57.575Z,21.10
2018-07-04T23:08:42.692Z,21.00
2018-07-04T23:11:27.828Z,21.00
2018-07-04T23:14:12.956Z,21.00
2018-07-04T23:16:58.139Z,21.00
2018-07-04T23:19:43.403Z,21.00
2018-07-04T23:22:28.552Z,21.00
2018-07-04T23:25:13.594Z,21.00
2018-07-04T23:27:58.848Z,20.80
2018-07-04T23:30:44.007Z,21.10
2018-07-04T23:33:29.260Z,21.10
2018-07-04T23:36:14.495Z,21.00
2018-07-04T23:38:59.739Z,21.20
2018-07-04T23:41:44.988Z,21.10
2018-07-04T23:44:30.215Z,21.00
2018-07-04T23:47:15.363Z,21.00
2018-07-04T23:50:00.685Z,21.00
2018-07-04T23:52:45.899Z,21.00
2018-07-04T23:55:31.315Z,21.00
2018-07-04T23:58:16.615Z,21.00
